Hlavní strana
METAR-TAF:

METAR-TAF

Letiště :

Tahoua, Niger

zeměpisná šířka: 14-54N, zeměpisná délka: 005-15E, výška: 386 m

Aktuální stav počasí

Zpráva byla vytvořena před 1 hodinou a 49 minutami, v 07:00 UTC
Východoseverovýchodní vítr 4 kt
Teplota 31°C
Vlhkost vzduchu 22%
Tlak 1012 hPa
Viditelnost: 8000 m

METAR: DRRT 260700Z 06004KT 8000 NSC 31/07 Q1012

Čas: 09:49 (08:49 UTC)


TAF: chybějící

Stav a předpovědi počasí z více než 4 000 letišť (zprávy METAR a TAF).

Červené a žluté tečky na mapě představují dostupné meteorologické stanice.

Když kurzor umístíte na tečku, zobrazí se název stanice.

Pak kliknutím zobrazíte stav a předpověď počasí.

Chcete-li změnit mapu, kliknutím na zelené tlačítko se znaménkem +mapu přiblížíte, kliknutím na zelené tlačítko se znaménkem – mapu oddálíte a kliknutím na zelené šipky přejdete na sousední mapy.


METAR-TAF: